Latest Coastal Weather Observations for Shark Bay Airport

IDW60701

Issued at 5:05 am WST Sunday 23 November 2014 (issued every 10 minutes, with the page automatically refreshed every 10 minutes)

About coastal observations | Map of coastal stations | Coastal observations for WA | Marine services | Other Formats
Station Details ID: 006105 Name: SHARK BAY AIRPORT Lat: -25.89 Lon: 113.58 Height: 33.8 m
Data from the previous 72 hours. | See also: Recent months for locations in Western Australia
Date/Time
WST
Temp

°C
Wind Pressure Rain
since 9am
mm
Weather Cloud Vis
km
Sea
Height
m
Swell
Dir
 
Speed
knots
Gust
knots
hPa Trend Height
m
Period
s
Dir
23/05:00am 16.3 SE 7 8 1014.1 - 0.0 - - - - - - -
23/04:30am 16.3 SE 7 10 1013.7 - 0.0 - - - - - - -
23/04:00am 16.4 SSE 7 9 1013.5 - 0.0 - - - - - - -
23/03:30am 17.1 SE 9 11 1013.4 - 0.0 - - - - - - -
23/03:00am 17.5 SSE 8 11 1013.3 - 0.0 - - - - - - -
23/02:30am 17.9 SSE 9 12 1013.2 - 0.0 - - - - - - -
23/02:00am 17.9 SSE 9 11 1013.4 - 0.0 - - - - - - -
23/01:30am 17.9 SSE 6 9 1013.5 - 0.0 - - - - - - -
23/01:00am 18.1 S 7 10 1013.7 - 0.0 - - - - - - -
23/12:30am 18.5 S 10 14 1014.0 - 0.0 - - - - - - -
23/12:00am 18.7 S 11 16 1014.0 - 0.0 - - - - - - -
 
Date/Time
WST
Temp

°C
Wind Pressure Rain
since 9am
mm
Weather Cloud Vis
km
Sea
Height
m
Swell
Dir
 
Speed
knots
Gust
knots
hPa Trend Height
m
Period
s
Dir
22/11:30pm 18.9 S 10 15 1014.3 - 0.0 - - - - - - -
22/11:00pm 19.2 S 10 16 1014.4 - 0.0 - - - - - - -
22/10:30pm 19.1 S 12 17 1014.7 - 0.0 - - - - - - -
22/10:00pm 19.1 S 12 16 1014.7 - 0.0 - - - - - - -
22/09:30pm 19.3 S 11 16 1014.5 - 0.0 - - - - - - -
22/09:00pm 19.7 SSW 13 19 1014.6 - 0.0 - - - - - - -
22/08:30pm 19.9 SSW 13 17 1014.5 - 0.0 - - - - - - -
22/08:00pm 20.3 SSW 15 21 1014.3 - 0.0 - - - - - - -
22/07:30pm 20.6 SSW 15 20 1013.9 - 0.0 - - - - - - -
22/07:00pm 21.1 SSW 15 18 1013.7 - 0.0 - - - - - - -
22/06:30pm 22.0 S 14 19 1013.4 - 0.0 - - - - - - -
22/06:00pm 23.0 S 15 19 1013.2 - 0.0 - - - - - - -
22/05:30pm 23.8 SSW 16 22 1012.9 - 0.0 - - - - - - -
22/05:00pm 24.7 S 16 20 1012.8 - 0.0 - - - - - - -
22/04:30pm 25.1 SW 15 22 1012.8 - 0.0 - - - - - - -
22/04:00pm 25.9 SW 11 15 1012.8 - 0.0 - - - - - - -
22/03:30pm 26.5 SSW 11 18 1013.0 - 0.0 - - - - - - -
22/03:00pm 25.4 SW 10 17 1013.2 - 0.0 - - - - - - -
22/02:30pm 25.6 SSW 11 16 1013.3 - 0.0 - - - - - - -
22/02:00pm 26.9 WSW 10 15 1013.6 - 0.0 - - - - - - -
22/01:30pm 27.7 SW 9 14 1013.7 - 0.0 - - - - - - -
22/01:00pm 27.0 SW 9 14 1013.9 - 0.0 - - - - - - -
22/12:30pm 27.1 SW 10 15 1013.9 - 0.0 - - - - - - -
22/12:00pm 25.6 WSW 11 15 1014.2 - 0.0 - - - - - - -
22/11:30am 26.6 SW 10 15 1014.4 - 0.0 - - - - - - -
22/11:00am 26.3 SW 8 14 1014.5 - 0.0 - - - - - - -
22/10:30am 25.9 S 8 12 1014.7 - 0.0 - - - - - - -
22/10:00am 25.0 SW 10 14 1014.9 - 0.0 - - - - - - -
22/09:30am 24.2 S 8 13 1015.1 - 0.0 - - - - - - -
22/09:00am 22.6 SSE 8 12 1015.2 - 0.0 - - - - - - -
22/08:30am 21.2 SSE 10 13 1015.2 - 0.0 - - - - - - -
22/08:00am 21.3 SE 9 13 1015.0 - 0.0 - - - - - - -
22/07:30am 21.0 SE 10 13 1014.7 - 0.0 - - - - - - -
22/07:00am 21.7 SSE 9 13 1014.4 - 0.0 - - - - - - -
22/06:30am 19.6 SSE 6 9 1014.0 - 0.0 - - - - - - -
22/06:00am 18.6 S 5 6 1013.9 - 0.0 - - - - - - -
22/05:30am 17.7 S 6 6 1013.4 - 0.0 - - - - - - -
22/05:00am 18.2 S 6 8 1013.1 - 0.0 - - - - - - -
22/04:30am 18.7 S 8 10 1012.8 - 0.0 - - - - - - -
22/04:00am 19.1 S 10 14 1012.7 - 0.0 - - - - - - -
22/03:30am 19.2 S 10 14 1012.6 - 0.0 - - - - - - -
22/03:00am 19.1 S 9 13 1012.4 - 0.0 - - - - - - -
22/02:30am 19.0 S 8 10 1012.5 - 0.0 - - - - - - -
22/02:00am 19.5 S 9 13 1012.6 - 0.0 - - - - - - -
22/01:30am 20.2 S 11 15 1012.8 - 0.0 - - - - - - -
22/01:00am 19.9 S 11 15 1013.0 - 0.0 - - - - - - -
22/12:30am 20.1 SSW 14 18 1013.1 - 0.0 - - - - - - -
22/12:00am 20.1 SSW 13 17 1013.5 - 0.0 - - - - - - -
 
Date/Time
WST
Temp

°C
Wind Pressure Rain
since 9am
mm
Weather Cloud Vis
km
Sea
Height
m
Swell
Dir
 
Speed
knots
Gust
knots
hPa Trend Height
m
Period
s
Dir
21/11:30pm 20.3 SSW 14 19 1013.6 - 0.0 - - - - - - -
21/11:00pm 20.4 SSW 13 19 1013.7 - 0.0 - - - - - - -
21/10:30pm 20.6 SSW 14 20 1013.9 - 0.0 - - - - - - -
21/10:00pm 20.4 SSW 12 17 1014.1 - 0.0 - - - - - - -
21/09:30pm 20.5 SSW 13 20 1014.0 - 0.0 - - - - - - -
21/09:00pm 20.6 SSW 14 20 1013.9 - 0.0 - - - - - - -
21/08:30pm 20.6 SSW 13 22 1013.8 - 0.0 - - - - - - -
21/08:00pm 20.8 SSW 14 19 1013.6 - 0.0 - - - - - - -
21/07:30pm 21.0 SW 14 19 1013.4 - 0.0 - - - - - - -
21/07:00pm 21.2 SW 14 18 1013.1 - 0.0 - - - - - - -
21/06:30pm 22.0 SW 16 20 1012.8 - 0.0 - - - - - - -
21/06:00pm 22.9 SW 15 21 1012.7 - 0.0 - - - - - - -
21/05:30pm 23.4 SW 17 23 1012.5 - 0.0 - - - - - - -
21/05:00pm 23.9 SW 18 24 1012.5 - 0.0 - - - - - - -
21/04:30pm 24.7 SW 16 22 1012.5 - 0.0 - - - - - - -
21/04:00pm 25.4 SW 16 21 1012.7 - 0.0 - - - - - - -
21/03:30pm 26.0 SW 13 19 1012.8 - 0.0 - - - - - - -
21/03:00pm 26.4 WSW 13 18 1012.9 - 0.0 - - - - - - -
21/02:30pm 26.3 SW 13 17 1013.1 - 0.0 - - - - - - -
21/02:00pm 26.4 SW 11 16 1013.4 - 0.0 - - - - - - -
21/01:30pm 25.9 SW 12 17 1013.6 - 0.0 - - - - - - -
21/01:00pm 26.4 SW 11 15 1013.9 - 0.0 - - - - - - -
21/12:30pm 26.3 WSW 12 18 1014.2 - 0.0 - - - - - - -
21/12:00pm 26.4 WSW 11 17 1014.5 - 0.0 - - - - - - -
21/11:30am 25.8 SW 11 18 1014.8 - 0.0 - - - - - - -
21/11:00am 24.9 SSW 11 18 1015.0 - 0.0 - - - - - - -
21/10:30am 24.7 SSW 10 16 1015.4 - 0.0 - - - - - - -
21/10:00am 24.7 SW 11 17 1015.6 - 0.0 - - - - - - -
21/09:30am 23.4 SW 12 18 1015.9 - 0.0 - - - - - - -
21/09:00am 22.6 SSW 9 14 1015.7 - 0.0 - - - - - - -
21/08:30am 23.1 SSE 8 14 1015.6 - 0.0 - - - - - - -
21/08:00am 22.2 S 8 13 1015.5 - 0.0 - - - - - - -
21/07:30am 21.6 S 7 11 1015.3 - 0.0 - - - - - - -
21/07:00am 20.5 SSE 7 10 1015.1 - 0.0 - - - - - - -
21/06:30am 19.1 SSE 5 7 1014.7 - 0.0 - - - - - - -
21/06:00am 18.0 S 5 6 1014.5 - 0.0 - - - - - - -
21/05:30am 17.4 SSE 5 6 1013.9 - 0.0 - - - - - - -
21/05:00am 17.0 S 5 6 1013.6 - 0.0 - - - - - - -
21/04:30am 17.2 S 6 7 1013.5 - 0.0 - - - - - - -
21/04:00am 18.0 S 7 8 1013.3 - 0.0 - - - - - - -
21/03:30am 18.1 S 6 8 1013.3 - 0.0 - - - - - - -
21/03:00am 17.9 S 6 7 1013.3 - 0.0 - - - - - - -
21/02:30am 18.6 S 5 8 1013.3 - 0.0 - - - - - - -
21/02:00am 18.9 S 6 9 1013.5 - 0.0 - - - - - - -
21/01:30am 19.3 S 8 10 1013.6 - 0.0 - - - - - - -
21/01:00am 19.5 S 8 11 1014.0 - 0.0 - - - - - - -
21/12:30am 19.1 S 7 11 1014.3 - 0.0 - - - - - - -
21/12:00am 19.4 S 10 13 1014.3 - 0.0 - - - - - - -
 
Date/Time
WST
Temp

°C
Wind Pressure Rain
since 9am
mm
Weather Cloud Vis
km
Sea
Height
m
Swell
Dir
 
Speed
knots
Gust
knots
hPa Trend Height
m
Period
s
Dir
20/11:30pm 19.9 S 10 13 1014.5 - 0.0 - - - - - - -
20/11:00pm 20.1 S 9 11 1014.7 - 0.0 - - - - - - -
20/10:30pm 20.3 S 11 15 1014.9 - 0.0 - - - - - - -
20/10:00pm 20.3 SSW 12 17 1014.9 - 0.0 - - - - - - -
20/09:30pm 20.5 SSW 14 18 1015.0 - 0.0 - - - - - - -
20/09:00pm 20.5 SSW 14 18 1014.9 - 0.0 - - - - - - -
20/08:30pm 20.5 SSW 13 18 1014.7 - 0.0 - - - - - - -
20/08:00pm 20.7 SSW 13 16 1014.3 - 0.0 - - - - - - -
20/07:30pm 21.1 SSW 13 17 1014.0 - 0.0 - - - - - - -
20/07:00pm 21.6 SSW 13 18 1013.7 - 0.0 - - - - - - -
20/06:30pm 22.4 SSW 13 19 1013.6 - 0.0 - - - - - - -
20/06:00pm 22.9 SW 15 19 1013.3 - 0.0 - - - - - - -
20/05:30pm 23.6 SW 15 19 1013.2 - 0.0 - - - - - - -
20/05:00pm 24.4 SW 13 18 1013.1 - 0.0 - - - - - - -
20/04:30pm 24.5 SW 16 22 1013.2 - 0.0 - - - - - - -
20/04:00pm 25.2 SW 15 20 1013.3 - 0.0 - - - - - - -
20/03:30pm 25.8 SW 15 20 1013.3 - 0.0 - - - - - - -
20/03:00pm 25.3 WSW 16 21 1013.5 - 0.0 - - - - - - -
20/02:30pm 26.0 WSW 16 23 1013.8 - 0.0 - - - - - - -
20/02:00pm 26.4 WSW 15 21 1013.9 - 0.0 - - - - - - -
20/01:30pm 26.3 WSW 15 21 1014.1 - 0.0 - - - - - - -
20/01:00pm 26.9 SW 13 17 1014.3 - 0.0 - - - - - - -
20/12:30pm 26.2 SW 12 19 1014.6 - 0.0 - - - - - - -
20/12:00pm 26.1 SW 11 17 1014.9 - 0.0 - - - - - - -
20/11:30am 25.6 WSW 9 13 1015.2 - 0.0 - - - - - - -
20/11:00am 25.9 WSW 9 15 1015.5 - 0.0 - - - - - - -
20/10:30am 24.9 SW 9 13 1015.8 - 0.0 - - - - - - -
20/10:00am 24.2 SW 10 15 1016.0 - 0.0 - - - - - - -
20/09:30am 24.4 WSW 10 13 1016.0 - 0.0 - - - - - - -
20/09:00am 24.1 S 6 10 1016.1 - 0.0 - - - - - - -
20/08:30am 23.3 SE 5 8 1016.1 - 0.0 - - - - - - -
20/08:00am 22.0 S 5 8 1016.2 - 0.0 - - - - - - -
20/07:30am 21.3 SE 6 9 1016.1 - 0.0 - - - - - - -
20/07:00am 21.0 SE 7 9 1015.8 - 0.0 - - - - - - -
20/06:30am 19.2 ESE 7 9 1015.6 - 0.0 - - - - - - -
20/06:00am 16.9 E 5 5 1015.4 - 0.0 - - - - - - -
20/05:30am 15.5 SE 4 5 1015.0 - 0.0 - - - - - - -

Other Formats:

Comma delimited format used in spreadsheet applications
http://www.bom.gov.au/fwo/IDW60701/IDW60701.95402.axf

JavaScript Object Notation format (JSON) in row-major order
http://www.bom.gov.au/fwo/IDW60701/IDW60701.95402.json